Garden City, Kansas
Current Conditions -  °F | °C
As of 11:54 AM on Monday 26 Jan 2015 (Local Time) from KGCK Reporting Station
Clear Clear  
Wind Chill: 66°   Ceiling: Unl
Heat Index: 66°   Visibility: 10mi
Dew Point: 30°   Wind: 17mph
Humidity: 26%   Direction: 340°NNW
Pressure: 30.17"   Gusts: NA
Location:  37.97°N, 100.87°W
Report Text: KGCK 261754Z 34015KT 10SM CLR 19/M01 A3017 RMK AO2 SLP212 T01891011 10189 20022 51007
Loading
Personal Weather Stations






























Interactive Weather Map New forecast layout! Learn more

10-Day Weather Forecast

Advertisements
Track Severe Weather on mobile